Time;durP1;ratioP1;P1;durP2;ratioP2;P2;SDS_P1;SDS_P2;PMS_P1;PMS_P2;Temp;Humidity;BMP_temperature;BMP_pressure;BME280_temperature;BME280_humidity;BME280_pressure;Samples;Min_cycle;Max_cycle;Signal;HPM_P1;HPM_P2
2021/03/25 00:00:26;;;;;;;20.20;12.05;;;;;;;3.98;63.83;96963.78;5074105;28;20036;-71
2021/03/25 00:02:54;;;;;;;19.48;11.52;;;;;;;3.94;63.42;96965.06;5073792;28;20423;-71
2021/03/25 00:05:27;;;;;;;18.75;11.30;;;;;;;3.91;63.32;96960.22;5073961;28;20040;-71
2021/03/25 00:07:53;;;;;;;20.50;11.85;;;;;;;3.91;63.30;96965.41;5072658;28;20374;-71
2021/03/25 00:10:29;;;;;;;15.52;10.50;;;;;;;3.92;64.03;96961.03;5073663;28;20492;-72
2021/03/25 00:12:55;;;;;;;16.35;11.25;;;;;;;3.93;63.82;96967.84;5062812;28;20036;-71
2021/03/25 00:15:22;;;;;;;17.00;9.63;;;;;;;3.94;63.87;96961.66;5073548;28;20028;-71
2021/03/25 00:17:48;;;;;;;13.10;9.07;;;;;;;3.93;63.88;96960.88;5073521;28;20048;-71
2021/03/25 00:20:17;;;;;;;12.50;9.00;;;;;;;3.94;64.16;96953.88;5073464;28;20044;-71
2021/03/25 00:22:44;;;;;;;12.48;9.50;;;;;;;3.91;64.27;96944.66;5073267;28;20447;-71
2021/03/25 00:25:16;;;;;;;17.02;9.30;;;;;;;3.90;64.47;96955.19;5073690;28;20028;-71
2021/03/25 00:27:42;;;;;;;13.00;9.15;;;;;;;3.88;63.99;96954.53;5073668;28;20048;-71
2021/03/25 00:30:11;;;;;;;11.50;8.73;;;;;;;3.84;64.14;96949.69;5073389;28;20044;-71
2021/03/25 00:32:38;;;;;;;10.85;8.52;;;;;;;3.83;64.19;96947.25;5073492;28;20043;-72
2021/03/25 00:35:07;;;;;;;13.85;8.25;;;;;;;3.82;64.43;96946.44;5073529;28;20044;-71
2021/03/25 00:37:33;;;;;;;10.13;8.05;;;;;;;3.81;64.41;96944.00;5072784;28;20051;-72
2021/03/25 00:40:00;;;;;;;10.13;7.63;;;;;;;3.80;64.40;96940.59;5073443;28;20487;-71
2021/03/25 00:42:26;;;;;;;10.40;7.90;;;;;;;3.76;64.66;96944.50;5073763;28;20041;-71
2021/03/25 00:44:52;;;;;;;10.30;7.60;;;;;;;3.73;64.60;96941.41;5073233;28;20461;-71
2021/03/25 00:47:18;;;;;;;8.98;7.82;;;;;;;3.68;64.51;96935.91;5073111;28;20059;-71
2021/03/25 00:49:44;;;;;;;9.00;7.18;;;;;;;3.61;64.67;96938.31;5073414;28;20041;-71
2021/03/25 00:52:11;;;;;;;9.30;6.90;;;;;;;3.58;64.55;96941.25;5072567;28;20047;-71
2021/03/25 00:54:37;;;;;;;9.27;7.35;;;;;;;3.54;64.64;96929.56;5073373;28;20051;-71
2021/03/25 00:57:04;;;;;;;10.40;7.55;;;;;;;3.52;64.81;96931.50;5073160;28;20040;-71
2021/03/25 00:59:30;;;;;;;9.73;7.10;;;;;;;3.49;64.93;96935.25;5073332;28;20055;-71
2021/03/25 01:01:56;;;;;;;16.27;6.63;;;;;;;3.49;65.27;96932.66;5072929;28;20041;-71
2021/03/25 01:04:22;;;;;;;7.50;6.70;;;;;;;3.48;65.25;96931.00;5073092;28;20397;-71
2021/03/25 01:06:48;;;;;;;9.85;7.38;;;;;;;3.48;65.49;96925.81;5072992;28;20037;-71
2021/03/25 01:09:24;;;;;;;10.27;7.40;;;;;;;3.49;67.02;96929.25;5073214;28;20061;-72
2021/03/25 01:11:51;;;;;;;9.20;7.10;;;;;;;3.48;65.81;96910.28;5066346;28;20039;-71
2021/03/25 01:14:20;;;;;;;7.82;6.35;;;;;;;3.49;65.82;96924.88;5071674;28;20033;-71
2021/03/25 01:16:47;;;;;;;10.40;6.80;;;;;;;3.49;65.89;96932.66;5073082;28;20056;-72
2021/03/25 01:19:27;;;;;;;11.18;7.72;;;;;;;3.49;66.03;96924.06;5072932;28;20052;-71
2021/03/25 01:21:54;;;;;;;9.18;7.32;;;;;;;3.48;65.85;96925.03;5073379;28;20413;-72
2021/03/25 01:24:20;;;;;;;9.10;6.97;;;;;;;3.44;65.95;96919.34;5072646;28;20041;-72
2021/03/25 01:26:47;;;;;;;10.32;7.68;;;;;;;3.41;65.92;96911.91;5072613;28;20049;-71
2021/03/25 01:29:14;;;;;;;8.55;6.93;;;;;;;3.37;65.84;96908.81;5072969;28;20028;-71
2021/03/25 01:31:40;;;;;;;9.27;7.38;;;;;;;3.33;65.76;96907.50;5072651;28;20036;-71
2021/03/25 01:34:08;;;;;;;9.13;7.15;;;;;;;3.29;65.84;96906.19;5072633;28;20039;-71
2021/03/25 01:36:35;;;;;;;7.72;6.63;;;;;;;3.23;65.97;96904.25;5076669;28;20055;-71
2021/03/25 01:39:01;;;;;;;11.63;7.22;;;;;;;3.19;66.10;96903.78;5076472;28;20483;-71
2021/03/25 01:41:30;;;;;;;8.48;6.93;;;;;;;3.16;66.17;96895.50;5076407;28;20370;-71
2021/03/25 01:43:56;;;;;;;11.43;6.78;;;;;;;3.10;66.19;96899.53;5076905;28;20037;-71
2021/03/25 01:46:25;;;;;;;7.80;6.45;;;;;;;3.05;66.06;96900.03;5076272;28;20040;-71
2021/03/25 01:48:57;;;;;;;10.18;7.30;;;;;;;3.00;66.15;96899.69;5076817;28;20040;-72
2021/03/25 01:51:34;;;;;;;9.82;7.18;;;;;;;2.95;65.97;96898.53;5068400;28;20032;-71
2021/03/25 01:54:47;;;;;;;8.93;7.22;;;;;;;2.91;67.13;96898.03;5076695;28;20043;-71
2021/03/25 01:57:32;;;;;;;9.63;7.32;;;;;;;2.87;66.95;96893.34;5063543;28;20491;-71
2021/03/25 02:00:12;;;;;;;8.98;7.00;;;;;;;2.83;66.87;96892.84;5065468;28;20036;-72
2021/03/25 02:03:21;;;;;;;9.60;6.80;;;;;;;2.78;67.11;96890.72;5076349;28;20040;-71
2021/03/25 02:05:57;;;;;;;8.35;7.00;;;;;;;2.76;66.85;96882.31;5076016;28;20408;-71
2021/03/25 02:08:54;;;;;;;10.23;7.30;;;;;;;2.78;67.52;96889.91;5076559;28;20036;-71
2021/03/25 02:11:31;;;;;;;10.15;7.25;;;;;;;2.77;67.20;96885.69;5075788;28;20036;-71
2021/03/25 02:14:11;;;;;;;12.32;7.22;;;;;;;2.75;67.34;96880.69;5076598;28;20037;-71
2021/03/25 02:17:07;;;;;;;9.73;7.45;;;;;;;2.74;67.62;96880.84;5062690;28;20048;-71
2021/03/25 02:19:50;;;;;;;10.23;7.45;;;;;;;2.72;67.20;96875.81;5075715;28;20477;-72
2021/03/25 02:22:31;;;;;;;9.52;6.93;;;;;;;2.68;67.36;96879.69;5076272;28;20273;-71
2021/03/25 02:25:04;;;;;;;9.23;7.15;;;;;;;2.62;66.87;96878.56;5075906;28;20036;-71
2021/03/25 02:27:39;;;;;;;8.52;6.57;;;;;;;2.57;66.82;96877.41;5075834;28;20028;-71
2021/03/25 02:30:17;;;;;;;9.90;7.30;;;;;;;2.52;66.72;96874.44;5075729;28;20491;-71
2021/03/25 02:32:53;;;;;;;10.43;7.18;;;;;;;2.48;66.99;96871.38;5062725;28;20052;-71
2021/03/25 02:35:28;;;;;;;9.13;6.50;;;;;;;2.43;66.77;96878.78;5075611;28;20029;-71
2021/03/25 02:38:42;;;;;;;10.07;6.55;;;;;;;2.37;67.16;96874.22;5075738;28;20036;-71
2021/03/25 02:41:14;;;;;;;10.25;7.65;;;;;;;2.29;66.90;96875.03;5075913;28;20036;-71
2021/03/25 02:43:50;;;;;;;8.77;6.72;;;;;;;2.26;66.97;96874.50;5064601;28;20469;-71
2021/03/25 02:46:24;;;;;;;13.07;6.95;;;;;;;2.23;67.04;96870.47;5075545;28;20036;-71
2021/03/25 02:48:55;;;;;;;11.68;7.32;;;;;;;2.22;66.97;96876.59;5063682;28;20052;-71
2021/03/25 02:51:31;;;;;;;8.50;6.97;;;;;;;2.18;67.01;96870.09;5075489;28;20039;-71
2021/03/25 02:53:57;;;;;;;8.90;6.93;;;;;;;2.14;66.87;96864.44;5075758;28;20037;-71
2021/03/25 02:56:45;;;;;;;9.40;7.05;;;;;;;2.12;66.96;96863.78;5075525;28;20477;-71
2021/03/25 02:59:16;;;;;;;8.77;6.50;;;;;;;2.06;67.12;96866.16;5074327;28;20040;-72
2021/03/25 03:01:48;;;;;;;9.65;6.95;;;;;;;2.02;67.05;96863.09;5075465;28;20373;-71
2021/03/25 03:04:21;;;;;;;9.40;7.50;;;;;;;1.99;66.96;96863.38;5075175;28;20036;-71
2021/03/25 03:06:57;;;;;;;8.88;7.30;;;;;;;1.97;67.17;96862.72;5075865;28;20507;-71
2021/03/25 03:09:30;;;;;;;9.63;7.20;;;;;;;1.94;67.27;96857.88;5074596;28;20040;-71
2021/03/25 03:12:00;;;;;;;10.77;6.53;;;;;;;1.92;67.25;96858.00;5075517;28;20037;-71
2021/03/25 03:14:41;;;;;;;8.07;6.35;;;;;;;1.91;67.41;96851.22;5075399;28;20103;-71
2021/03/25 03:17:23;;;;;;;10.05;7.43;;;;;;;1.93;68.07;96854.47;5075101;28;20055;-71
2021/03/25 03:19:54;;;;;;;7.25;6.30;;;;;;;1.91;67.68;96848.66;5074812;28;20040;-71
2021/03/25 03:22:21;;;;;;;10.43;7.05;;;;;;;1.92;67.47;96852.03;5074710;28;20032;-71
2021/03/25 03:24:50;;;;;;;9.70;6.40;;;;;;;1.92;67.53;96852.03;5075352;28;20420;-71
2021/03/25 03:27:29;;;;;;;9.23;6.88;;;;;;;1.92;68.18;96850.25;5074471;28;20039;-71
2021/03/25 03:29:59;;;;;;;10.95;7.32;;;;;;;1.93;68.01;96848.47;5074318;28;20064;-71
2021/03/25 03:32:33;;;;;;;10.82;7.30;;;;;;;1.94;68.05;96853.50;5074730;28;20037;-71
2021/03/25 03:35:10;;;;;;;;;;;;;;;1.93;69.28;96857.06;5075294;28;20044;-71
2021/03/25 03:37:42;;;;;;;10.85;7.30;;;;;;;1.90;67.95;96852.19;5074218;28;19920;-71
2021/03/25 03:40:19;;;;;;;9.80;7.03;;;;;;;1.90;68.14;96859.13;5074677;28;20036;-71
2021/03/25 03:42:46;;;;;;;8.82;6.95;;;;;;;1.89;68.06;96860.91;5074497;28;20032;-71
2021/03/25 03:45:18;;;;;;;8.60;7.22;;;;;;;1.88;68.31;96856.69;5074337;28;20036;-71
2021/03/25 03:47:45;;;;;;;11.77;7.72;;;;;;;1.87;68.12;96859.41;5074143;28;20465;-71
2021/03/25 03:50:24;;;;;;;9.55;7.00;;;;;;;1.86;68.64;96857.81;5074294;28;20040;-71
2021/03/25 03:52:53;;;;;;;9.40;6.82;;;;;;;1.78;67.99;96849.03;5060975;28;20029;-71
2021/03/25 03:55:20;;;;;;;11.15;7.03;;;;;;;1.75;67.73;96853.72;5074241;28;20491;-72
2021/03/25 03:58:04;;;;;;;9.05;6.78;;;;;;;1.69;67.87;96854.31;5073262;28;20033;-71
2021/03/25 04:00:42;;;;;;;10.80;6.90;;;;;;;1.65;67.99;96858.97;5073542;28;20465;-71
2021/03/25 04:03:20;;;;;;;8.35;6.15;;;;;;;1.62;68.36;96859.28;5074176;28;20059;-71
2021/03/25 04:05:56;;;;;;;10.27;6.90;;;;;;;1.59;68.29;96857.78;5073864;28;20033;-71
2021/03/25 04:08:29;;;;;;;9.77;6.88;;;;;;;1.58;68.45;96857.97;5073922;28;20055;-71
2021/03/25 04:11:12;;;;;;;8.25;6.45;;;;;;;1.59;68.47;96857.00;5074047;28;20393;-72
2021/03/25 04:13:44;;;;;;;7.63;6.28;;;;;;;1.61;68.78;96857.66;5073284;28;20048;-71
2021/03/25 04:16:13;;;;;;;9.77;6.40;;;;;;;1.58;68.37;96860.56;5073554;28;20047;-72
2021/03/25 04:18:52;;;;;;;8.90;6.38;;;;;;;1.59;68.79;96857.78;5073946;28;20041;-71
2021/03/25 04:21:24;;;;;;;9.13;6.47;;;;;;;1.57;68.28;96857.13;5074055;28;20045;-72
2021/03/25 04:23:53;;;;;;;9.85;5.97;;;;;;;1.56;68.30;96857.31;5065356;28;20040;-71
2021/03/25 04:26:27;;;;;;;9.30;6.65;;;;;;;1.55;68.39;96856.47;5073443;28;20029;-71
2021/03/25 04:29:05;;;;;;;9.15;6.57;;;;;;;1.53;68.66;96860.97;5073367;28;20040;-71
2021/03/25 04:31:33;;;;;;;11.02;6.68;;;;;;;1.51;68.34;96860.34;5074306;28;20051;-71
2021/03/25 04:34:03;;;;;;;8.73;6.82;;;;;;;1.52;68.46;96858.56;5073557;28;20037;-71
2021/03/25 04:36:35;;;;;;;8.18;6.10;;;;;;;1.53;68.91;96860.19;5073999;28;20039;-71
2021/03/25 04:39:05;;;;;;;9.38;6.85;;;;;;;1.54;68.81;96860.03;5073392;28;20039;-71
2021/03/25 04:41:34;;;;;;;11.40;7.20;;;;;;;1.53;68.70;96847.25;5073241;28;20040;-71
2021/03/25 04:44:04;;;;;;;8.98;6.80;;;;;;;1.54;68.89;96854.88;5073852;28;20370;-71
2021/03/25 04:46:44;;;;;;;7.40;6.13;;;;;;;1.56;69.27;96857.31;5073644;28;20040;-71
2021/03/25 04:49:17;;;;;;;9.93;6.38;;;;;;;1.57;69.28;96856.34;5073272;28;20044;-71
2021/03/25 04:51:44;;;;;;;6.60;5.13;;;;;;;1.56;69.02;96855.53;5073424;28;20056;-71
2021/03/25 04:54:30;;;;;;;8.75;6.50;;;;;;;1.59;69.87;96859.56;5073492;28;20393;-71
2021/03/25 04:57:05;;;;;;;6.50;5.60;;;;;;;1.58;69.25;96848.44;5073562;28;20040;-71
2021/03/25 04:59:32;;;;;;;7.85;5.75;;;;;;;1.59;69.22;96852.63;5073422;28;20056;-71
2021/03/25 05:02:00;;;;;;;8.50;6.22;;;;;;;1.59;69.21;96849.22;5072736;28;20378;-71
2021/03/25 05:04:26;;;;;;;8.80;6.25;;;;;;;1.57;69.07;96853.75;5072947;28;20134;-71
2021/03/25 05:06:59;;;;;;;9.48;5.78;;;;;;;1.58;69.66;96852.78;5073201;28;20047;-71
2021/03/25 05:09:27;;;;;;;8.50;6.53;;;;;;;1.58;69.51;96855.38;5075462;28;20408;-71
2021/03/25 05:11:54;;;;;;;6.55;5.22;;;;;;;1.57;69.43;96851.97;5076604;28;20044;-71
2021/03/25 05:14:23;;;;;;;8.05;6.10;;;;;;;1.59;69.60;96857.78;5077269;28;20048;-71
2021/03/25 05:17:37;;;;;;;9.02;6.18;;;;;;;1.59;70.49;96860.38;5076682;28;20045;-71
2021/03/25 05:20:43;;;;;;;9.18;6.15;;;;;;;1.55;69.36;96856.47;5045075;28;20055;-71
2021/03/25 05:23:26;;;;;;;6.82;5.93;;;;;;;1.48;69.22;96850.28;5068125;28;20056;-71
2021/03/25 05:26:05;;;;;;;9.20;6.35;;;;;;;1.46;69.25;96865.13;5077657;28;20029;-71
2021/03/25 05:28:40;;;;;;;8.20;5.22;;;;;;;1.42;69.26;96862.03;5077158;28;20032;-71
2021/03/25 05:31:12;;;;;;;10.07;6.50;;;;;;;1.45;69.34;96863.53;5076778;28;20024;-71
2021/03/25 05:33:39;;;;;;;7.55;5.43;;;;;;;1.47;69.45;96866.78;5076916;28;20032;-71
2021/03/25 05:36:09;;;;;;;10.43;6.78;;;;;;;1.51;69.62;96869.84;5077248;28;20040;-71
2021/03/25 05:38:37;;;;;;;10.30;6.57;;;;;;;1.54;69.50;96872.16;5076626;28;20036;-71
2021/03/25 05:41:06;;;;;;;9.27;6.70;;;;;;;1.59;69.63;96873.31;5076685;28;20040;-71
2021/03/25 05:44:04;;;;;;;7.25;5.97;;;;;;;1.65;70.47;96874.47;5076437;28;20099;-72
2021/03/25 05:46:49;;;;;;;9.07;6.95;;;;;;;1.70;70.34;96874.03;5076968;28;20044;-71
2021/03/25 05:49:38;;;;;;;8.52;6.78;;;;;;;1.77;70.30;96865.53;5065611;28;20036;-71
2021/03/25 05:52:17;;;;;;;8.40;6.53;;;;;;;1.97;70.40;96873.06;5076458;28;20037;-71
2021/03/25 05:55:01;;;;;;;9.70;6.22;;;;;;;2.19;70.10;96875.13;5063423;28;20045;-71
2021/03/25 05:57:42;;;;;;;8.45;6.32;;;;;;;2.53;69.88;96876.88;5076683;28;20032;-71
2021/03/25 06:00:25;;;;;;;9.68;6.53;;;;;;;2.85;69.23;96878.75;5076180;28;20047;-71
2021/03/25 06:03:01;;;;;;;9.27;6.28;;;;;;;3.41;69.00;96880.78;5076841;28;20483;-71
2021/03/25 06:05:27;;;;;;;10.18;5.85;;;;;;;3.96;68.67;96880.09;5076355;28;20499;-71
2021/03/25 06:08:02;;;;;;;7.53;5.13;;;;;;;4.54;67.28;96878.13;5076538;28;20044;-71
2021/03/25 06:10:57;;;;;;;8.40;5.53;;;;;;;5.04;65.64;96876.06;5075963;28;20058;-71
2021/03/25 06:13:53;;;;;;;7.18;5.53;;;;;;;5.53;64.91;96865.31;5076471;28;20461;-71
2021/03/25 06:16:56;;;;;;;10.77;5.97;;;;;;;6.13;62.61;96868.84;5065891;28;20057;-72
2021/03/25 06:19:47;;;;;;;6.70;5.55;;;;;;;6.69;61.39;96853.53;5075759;28;20048;-71
2021/03/25 06:22:19;;;;;;;8.25;5.43;;;;;;;7.06;63.99;96875.22;5075447;28;20033;-71
2021/03/25 06:24:54;;;;;;;8.45;5.43;;;;;;;7.41;61.03;96857.09;5076198;28;20059;-71
2021/03/25 06:27:32;;;;;;;6.55;4.93;;;;;;;7.59;61.25;96868.88;5075713;28;20024;-71
2021/03/25 06:30:22;;;;;;;6.50;4.88;;;;;;;7.65;60.38;96862.91;5075786;28;20055;-71
2021/03/25 06:32:54;;;;;;;5.18;4.45;;;;;;;7.70;59.62;96870.97;5064451;28;20052;-71
2021/03/25 06:35:42;;;;;;;7.53;5.00;;;;;;;7.80;56.94;96836.69;5062408;28;20024;-71
2021/03/25 06:38:17;;;;;;;6.20;4.97;;;;;;;7.72;58.29;96861.13;5075831;28;20457;-71
2021/03/25 06:41:02;;;;;;;7.55;5.05;;;;;;;7.75;56.92;96847.72;5065009;28;20040;-71
2021/03/25 06:43:34;;;;;;;5.32;4.78;;;;;;;7.80;58.32;96861.00;5075906;28;20412;-71
2021/03/25 06:46:17;;;;;;;5.40;4.82;;;;;;;7.91;56.38;96842.19;5075797;28;20029;-71
2021/03/25 06:49:20;;;;;;;6.43;5.30;;;;;;;8.07;54.33;96822.00;5075870;28;20047;-71
2021/03/25 06:51:48;;;;;;;6.10;4.55;;;;;;;8.09;58.09;96856.59;5058871;28;20044;-71
2021/03/25 06:54:25;;;;;;;6.38;4.60;;;;;;;8.21;55.92;96841.97;5075342;28;20473;-71
2021/03/25 06:56:54;;;;;;;6.32;4.10;;;;;;;8.49;57.53;96849.78;5073842;28;20040;-71
2021/03/25 06:59:24;;;;;;;5.45;4.35;;;;;;;8.81;57.19;96850.09;5075113;28;20036;-71
2021/03/25 07:01:55;;;;;;;7.18;4.00;;;;;;;9.02;56.23;96845.75;5075813;28;20032;-71
2021/03/25 07:04:23;;;;;;;4.22;3.80;;;;;;;9.21;55.90;96841.53;5075239;28;20048;-71
2021/03/25 07:06:52;;;;;;;4.40;3.70;;;;;;;9.49;55.27;96851.84;5075353;28;20420;-71
2021/03/25 07:09:27;;;;;;;5.75;4.03;;;;;;;9.51;51.93;96818.41;5074810;28;20044;-72
2021/03/25 07:11:57;;;;;;;6.03;3.80;;;;;;;9.72;53.84;96825.25;5075289;28;20043;-71
2021/03/25 07:14:38;;;;;;;4.65;4.07;;;;;;;9.76;50.52;96792.41;5074855;28;20047;-71
2021/03/25 07:17:09;;;;;;;5.78;4.00;;;;;;;9.67;52.67;96818.00;5074395;28;20052;-71
2021/03/25 07:19:38;;;;;;;4.10;3.70;;;;;;;9.58;52.47;96808.75;5074545;28;20693;-72
2021/03/25 07:22:27;;;;;;;4.50;3.70;;;;;;;9.61;48.92;96790.00;5075508;28;20123;-71
2021/03/25 07:25:15;;;;;;;6.03;3.72;;;;;;;9.78;48.21;96773.88;5058189;28;20412;-71
2021/03/25 07:27:42;;;;;;;5.10;3.90;;;;;;;10.02;51.54;96806.47;5074633;28;20036;-72
2021/03/25 07:30:13;;;;;;;5.07;3.85;;;;;;;10.21;50.71;96804.81;5074562;28;20037;-72
2021/03/25 07:32:48;;;;;;;4.55;3.80;;;;;;;10.52;49.60;96801.47;5073426;28;20388;-71
2021/03/25 07:35:23;;;;;;;;;;;;;;;10.62;45.42;96754.63;5074760;28;20036;-71
2021/03/25 07:37:50;;;;;;;5.15;3.50;;;;;;;10.70;49.36;96796.34;5074574;28;19920;-72
2021/03/25 07:40:36;;;;;;;5.25;3.90;;;;;;;10.59;47.23;96796.22;5074287;28;20036;-71
2021/03/25 07:43:22;;;;;;;5.57;4.07;;;;;;;10.70;46.51;96819.16;5074394;28;20032;-71
2021/03/25 07:46:04;;;;;;;5.47;4.05;;;;;;;10.82;48.66;96854.22;5059897;28;20036;-71
2021/03/25 07:48:30;;;;;;;4.85;3.72;;;;;;;10.90;48.17;96853.19;5074136;28;20041;-72
2021/03/25 07:51:16;;;;;;;5.47;4.07;;;;;;;10.95;47.65;96854.16;5074536;28;20033;-72
2021/03/25 07:53:44;;;;;;;5.65;4.10;;;;;;;11.08;47.59;96850.66;5074387;28;20476;-72
2021/03/25 07:56:14;;;;;;;5.82;4.03;;;;;;;11.18;47.05;96850.19;5074496;28;20041;-72
2021/03/25 07:58:46;;;;;;;4.32;3.25;;;;;;;11.15;46.34;96854.06;5074186;28;20063;-72
2021/03/25 08:01:21;;;;;;;4.43;3.88;;;;;;;11.15;46.04;96851.44;5074231;28;20036;-72
2021/03/25 08:03:58;;;;;;;6.47;4.55;;;;;;;11.33;44.89;96849.91;5073955;28;20035;-72
2021/03/25 08:06:33;;;;;;;5.32;3.88;;;;;;;11.69;44.51;96843.97;5073946;28;20036;-72
2021/03/25 08:08:59;;;;;;;5.55;3.60;;;;;;;11.83;45.88;96855.19;5074145;28;20043;-71
2021/03/25 08:11:27;;;;;;;4.10;3.72;;;;;;;12.13;45.77;96851.91;5073753;28;20477;-72
2021/03/25 08:13:57;;;;;;;4.57;3.80;;;;;;;12.31;43.83;96845.88;5073676;28;20028;-72
2021/03/25 08:16:29;;;;;;;8.10;4.25;;;;;;;12.26;43.73;96846.50;5073231;28;20044;-71
2021/03/25 08:19:10;;;;;;;6.45;5.00;;;;;;;12.30;44.48;96844.25;5073831;28;20040;-72
2021/03/25 08:21:42;;;;;;;4.30;3.85;;;;;;;12.31;43.64;96844.03;5074153;28;20461;-72
2021/03/25 08:24:33;;;;;;;6.25;3.90;;;;;;;12.33;42.76;96843.81;5072997;28;20032;-72
2021/03/25 08:27:23;;;;;;;7.10;4.78;;;;;;;12.39;43.10;96837.69;5073543;28;20159;-72
2021/03/25 08:30:18;;;;;;;5.88;4.43;;;;;;;12.36;42.64;96841.53;5061923;28;20381;-72
2021/03/25 08:33:03;;;;;;;4.35;3.88;;;;;;;12.09;42.99;96842.84;5059398;28;20039;-72
2021/03/25 08:35:54;;;;;;;8.07;4.15;;;;;;;12.15;44.15;96855.91;5073411;28;20044;-72
2021/03/25 08:38:51;;;;;;;5.63;4.32;;;;;;;12.24;42.96;96845.13;5056658;28;20044;-72
2021/03/25 08:41:25;;;;;;;6.28;4.70;;;;;;;12.42;43.63;96841.69;5058785;28;20473;-72
2021/03/25 08:44:13;;;;;;;5.50;4.32;;;;;;;12.58;42.84;96843.75;5073374;28;20040;-72
2021/03/25 08:46:39;;;;;;;6.00;5.40;;;;;;;12.64;43.15;96855.19;5073574;28;20033;-72
2021/03/25 08:49:44;;;;;;;14.85;9.65;;;;;;;12.67;42.23;96838.97;5073182;28;20028;-72
2021/03/25 08:52:14;;;;;;;13.35;7.30;;;;;;;12.70;42.96;96847.22;5072840;28;20036;-72
2021/03/25 08:54:48;;;;;;;6.97;5.47;;;;;;;12.73;42.85;96856.53;5072972;28;20040;-72
2021/03/25 08:57:22;;;;;;;8.45;5.20;;;;;;;12.70;43.21;96851.69;5065032;28;20043;-72
2021/03/25 09:00:06;;;;;;;13.50;10.48;;;;;;;12.90;42.94;96848.81;5073400;28;20044;-72
2021/03/25 09:02:59;;;;;;;9.18;7.95;;;;;;;12.95;43.26;96856.84;5073392;28;20044;-72
2021/03/25 09:05:35;;;;;;;23.88;20.25;;;;;;;12.95;43.07;96849.75;5070969;28;20473;-72
2021/03/25 09:08:07;;;;;;;7.63;5.13;;;;;;;13.05;42.93;96846.59;5057378;28;20381;-72
2021/03/25 09:10:51;;;;;;;21.75;16.80;;;;;;;13.12;43.43;96857.03;5073589;28;20463;-72
2021/03/25 09:13:23;;;;;;;;;;;;;;;13.25;42.99;96853.41;5066880;28;20029;-72
2021/03/25 09:15:51;;;;;;;9.30;5.07;;;;;;;13.48;43.03;96850.88;5072441;28;19917;-72
2021/03/25 09:18:22;;;;;;;12.25;5.65;;;;;;;13.42;42.58;96845.69;5072912;28;20416;-72
2021/03/25 09:20:52;;;;;;;6.05;5.32;;;;;;;13.40;42.94;96845.94;5072619;28;20389;-72
2021/03/25 09:23:34;;;;;;;6.25;4.88;;;;;;;13.35;42.79;96846.56;5072449;28;20051;-72
2021/03/25 09:26:23;;;;;;;7.85;4.97;;;;;;;13.34;42.42;96844.19;5072700;28;20044;-72
2021/03/25 09:29:08;;;;;;;5.45;4.95;;;;;;;13.51;43.11;96854.88;5072476;28;20039;-72
2021/03/25 09:31:58;;;;;;;9.57;5.55;;;;;;;13.83;42.27;96846.66;5072709;28;20385;-72
2021/03/25 09:34:24;;;;;;;8.20;5.30;;;;;;;13.82;42.69;96848.50;5067353;28;20477;-72
2021/03/25 09:37:18;;;;;;;6.45;4.93;;;;;;;14.02;42.67;96850.78;5071849;28;20040;-72
2021/03/25 09:40:02;;;;;;;6.20;5.57;;;;;;;14.25;42.63;96857.91;5073184;28;20052;-72
2021/03/25 09:42:29;;;;;;;7.30;6.55;;;;;;;14.23;42.47;96849.41;5059653;28;20388;-72
2021/03/25 09:44:55;;;;;;;7.28;5.82;;;;;;;14.31;42.54;96848.25;5071826;28;20052;-72
2021/03/25 09:47:36;;;;;;;6.93;6.22;;;;;;;14.31;42.40;96846.41;5072749;28;20036;-72
2021/03/25 09:50:02;;;;;;;8.20;5.47;;;;;;;14.28;42.33;96851.34;5072894;28;20389;-72
2021/03/25 09:52:45;;;;;;;7.85;6.30;;;;;;;14.23;42.05;96846.78;5072793;28;20047;-72
2021/03/25 09:55:16;;;;;;;6.60;5.70;;;;;;;14.15;42.64;96855.84;5072508;28;20059;-72
2021/03/25 09:57:44;;;;;;;8.85;6.40;;;;;;;14.25;42.48;96852.63;5076444;28;20107;-72
2021/03/25 10:00:22;;;;;;;7.88;5.93;;;;;;;14.45;42.35;96849.63;5076219;28;20040;-72
2021/03/25 10:02:56;;;;;;;6.72;5.70;;;;;;;14.56;42.43;96850.66;5066188;28;20035;-72
2021/03/25 10:05:25;;;;;;;8.43;5.38;;;;;;;14.61;42.44;96841.03;5063405;28;20064;-73
2021/03/25 10:07:54;;;;;;;9.35;6.15;;;;;;;14.69;42.29;96837.19;5074992;28;20033;-72
2021/03/25 10:10:23;;;;;;;6.63;5.47;;;;;;;14.72;42.03;96844.66;5075949;28;20040;-73
2021/03/25 10:13:00;;;;;;;6.13;5.38;;;;;;;14.77;41.91;96836.03;5075967;28;20037;-72
2021/03/25 10:15:29;;;;;;;7.15;5.43;;;;;;;14.93;42.01;96827.38;5076104;28;20036;-72
2021/03/25 10:18:00;;;;;;;7.30;5.78;;;;;;;15.04;42.30;96833.63;5076374;28;20063;-72
2021/03/25 10:21:00;;;;;;;7.38;5.53;;;;;;;15.10;41.12;96818.66;5064394;28;20033;-72
2021/03/25 10:23:29;;;;;;;6.82;6.10;;;;;;;15.16;41.71;96823.00;5075915;28;20071;-72
2021/03/25 10:26:11;;;;;;;7.32;5.05;;;;;;;15.35;41.09;96821.75;5076468;28;20036;-72
2021/03/25 10:28:44;;;;;;;7.97;5.63;;;;;;;15.48;40.99;96822.50;5065902;28;20366;-72
2021/03/25 10:31:27;;;;;;;7.95;5.65;;;;;;;15.59;40.71;96816.31;5075612;28;20036;-73
2021/03/25 10:34:01;;;;;;;13.00;6.60;;;;;;;15.85;41.25;96811.44;5075904;28;20370;-72
2021/03/25 10:36:47;;;;;;;6.32;5.47;;;;;;;15.98;40.35;96817.22;5076071;28;20513;-72
2021/03/25 10:39:25;;;;;;;6.63;5.82;;;;;;;16.15;39.57;96814.53;5075147;28;20043;-72
2021/03/25 10:41:52;;;;;;;8.55;5.95;;;;;;;16.35;40.64;96808.69;5075689;28;20035;-72
2021/03/25 10:44:29;;;;;;;8.05;5.90;;;;;;;16.50;39.54;96805.41;5075367;28;20045;-72
2021/03/25 10:47:08;;;;;;;8.57;7.20;;;;;;;16.57;39.90;96811.34;5075534;28;20031;-72
2021/03/25 10:49:43;;;;;;;10.43;6.10;;;;;;;16.68;37.86;96796.38;5074775;28;20033;-72
2021/03/25 10:52:24;;;;;;;7.32;5.93;;;;;;;16.72;38.15;96800.13;5075241;28;20396;-72
2021/03/25 10:54:53;;;;;;;7.70;6.28;;;;;;;16.78;39.10;96801.00;5075279;28;20048;-72
2021/03/25 10:57:24;;;;;;;6.93;5.72;;;;;;;16.90;39.05;96796.34;5074237;28;20420;-72
2021/03/25 11:00:00;;;;;;;8.13;5.70;;;;;;;17.20;38.87;96784.47;5075501;28;20044;-72
2021/03/25 11:02:31;;;;;;;8.13;6.05;;;;;;;17.36;38.01;96799.44;5075131;28;20047;-72
2021/03/25 11:05:16;;;;;;;7.82;6.28;;;;;;;17.52;36.20;96789.78;5075594;28;20431;-72
2021/03/25 11:08:23;;;;;;;7.80;5.65;;;;;;;17.61;34.34;96776.84;5075136;28;20031;-72
2021/03/25 11:10:51;;;;;;;6.30;5.45;;;;;;;17.77;36.74;96785.72;5070192;28;20484;-72
2021/03/25 11:13:19;;;;;;;8.30;5.82;;;;;;;17.89;36.66;96788.19;5074934;28;20045;-72
2021/03/25 11:15:47;;;;;;;7.60;5.35;;;;;;;18.06;36.13;96780.88;5075072;28;20028;-72
2021/03/25 11:18:38;;;;;;;7.88;5.95;;;;;;;18.22;35.10;96787.84;5074861;28;20063;-72
2021/03/25 11:21:06;;;;;;;6.75;5.15;;;;;;;18.21;35.85;96777.50;5066129;28;20044;-72
2021/03/25 11:23:33;;;;;;;6.28;4.40;;;;;;;18.23;35.49;96786.78;5074744;28;20051;-72
2021/03/25 11:26:04;;;;;;;5.30;4.35;;;;;;;18.10;34.96;96781.97;5074203;28;20055;-72
2021/03/25 11:28:37;;;;;;;5.28;4.78;;;;;;;17.89;33.73;96782.88;5074840;28;20236;-72
2021/03/25 11:31:16;;;;;;;5.13;4.30;;;;;;;17.42;33.98;96779.09;5074939;28;20037;-72
2021/03/25 11:33:42;;;;;;;7.65;4.30;;;;;;;17.12;35.11;96784.94;5066432;28;20028;-72
2021/03/25 11:36:09;;;;;;;7.18;4.22;;;;;;;17.22;35.49;96775.22;5075034;28;20036;-72
2021/03/25 11:38:43;;;;;;;6.38;4.22;;;;;;;17.33;34.90;96772.66;5074469;28;20040;-72
2021/03/25 11:41:09;;;;;;;4.97;4.07;;;;;;;17.20;35.07;96766.72;5066748;28;20373;-71
2021/03/25 11:43:44;;;;;;;4.75;3.92;;;;;;;16.95;34.97;96775.22;5074235;28;20034;-71
2021/03/25 11:46:27;;;;;;;6.03;3.83;;;;;;;16.95;34.07;96771.78;5074240;28;20043;-72
2021/03/25 11:49:00;;;;;;;4.25;3.70;;;;;;;16.78;33.63;96762.06;5073670;28;20051;-72
2021/03/25 11:51:27;;;;;;;6.22;3.35;;;;;;;16.79;34.87;96762.84;5074149;28;20036;-72
2021/03/25 11:53:56;;;;;;;4.93;3.80;;;;;;;16.73;34.64;96764.63;5074434;28;20488;-72
2021/03/25 11:56:29;;;;;;;3.75;3.13;;;;;;;16.74;33.68;96760.16;5073940;28;20036;-72
2021/03/25 11:59:13;;;;;;;4.20;3.00;;;;;;;16.63;32.92;96749.47;5073975;28;20036;-72
2021/03/25 12:01:41;;;;;;;4.13;3.25;;;;;;;16.59;34.34;96761.59;5073983;28;20025;-72
2021/03/25 12:04:13;;;;;;;4.00;2.92;;;;;;;16.62;33.56;96762.94;5073740;28;20051;-72
2021/03/25 12:06:59;;;;;;;5.63;2.53;;;;;;;16.70;33.64;96762.50;5074152;28;20029;-72
2021/03/25 12:09:26;;;;;;;2.10;1.90;;;;;;;16.82;34.01;96757.91;5073714;28;20378;-72
2021/03/25 12:11:53;;;;;;;3.25;2.17;;;;;;;17.10;34.14;96756.03;5073868;28;20040;-72
2021/03/25 12:14:22;;;;;;;4.45;2.28;;;;;;;17.33;33.82;96754.09;5073604;28;20043;-72